Time;durP1;ratioP1;P1;durP2;ratioP2;P2;SDS_P1;SDS_P2;PMS_P1;PMS_P2;Temp;Humidity;BMP_temperature;BMP_pressure;BME280_temperature;BME280_humidity;BME280_pressure;Samples;Min_cycle;Max_cycle;Signal;HPM_P1;HPM_P2
2021/04/22 00:00:35;;;;;;;10.90;1.80;;;;;;;;;;5007863;28;20560;-68
2021/04/22 00:03:00;;;;;;;11.37;2.20;;;;;;;;;;5004596;28;20032;-68
2021/04/22 00:05:27;;;;;;;13.27;2.20;;;;;;;;;;5009128;28;20096;-68
2021/04/22 00:07:53;;;;;;;7.07;2.27;;;;;;;;;;5004998;28;20092;-68
2021/04/22 00:10:21;;;;;;;5.40;1.80;;;;;;;;;;5004258;28;20280;-68
2021/04/22 00:12:46;;;;;;;7.10;2.40;;;;;;;;;;5009320;28;20030;-68
2021/04/22 00:15:15;;;;;;;7.33;1.73;;;;;;;;;;5009248;28;20357;-68
2021/04/22 00:17:41;;;;;;;6.80;1.87;;;;;;;;;;5008706;28;20041;-68
2021/04/22 00:20:07;;;;;;;7.53;2.20;;;;;;;;;;5008030;28;20284;-68
2021/04/22 00:22:32;;;;;;;8.77;2.47;;;;;;;;;;5009650;28;20092;-68
2021/04/22 00:24:57;;;;;;;7.50;2.10;;;;;;;;;;5007128;28;20108;-68
2021/04/22 00:27:22;;;;;;;11.87;1.80;;;;;;;;;;5009602;28;20053;-68
2021/04/22 00:29:48;;;;;;;8.70;1.87;;;;;;;;;;5008751;28;20037;-68
2021/04/22 00:32:15;;;;;;;7.87;2.57;;;;;;;;;;5011750;28;20026;-68
2021/04/22 00:34:40;;;;;;;10.57;1.90;;;;;;;;;;5010190;28;20418;-68
2021/04/22 00:37:05;;;;;;;26.77;2.60;;;;;;;;;;5008771;28;20299;-68
2021/04/22 00:39:31;;;;;;;10.53;2.40;;;;;;;;;;5013697;28;20471;-68
2021/04/22 00:41:56;;;;;;;8.73;2.10;;;;;;;;;;5010793;28;20033;-68
2021/04/22 00:44:21;;;;;;;12.00;2.13;;;;;;;;;;5011625;28;20108;-68
2021/04/22 00:46:46;;;;;;;6.67;1.63;;;;;;;;;;5012352;28;20467;-68
2021/04/22 00:49:12;;;;;;;14.00;2.10;;;;;;;;;;5012625;28;20051;-68
2021/04/22 00:51:37;;;;;;;7.60;1.90;;;;;;;;;;5011163;28;20030;-68
2021/04/22 00:54:03;;;;;;;11.13;1.83;;;;;;;;;;5003830;28;20026;-68
2021/04/22 00:56:28;;;;;;;9.63;2.63;;;;;;;;;;5012795;28;20034;-68
2021/04/22 00:58:53;;;;;;;8.70;1.80;;;;;;;;;;5009091;28;20029;-68
2021/04/22 01:01:19;;;;;;;16.43;2.47;;;;;;;;;;5008564;28;20030;-68
2021/04/22 01:03:45;;;;;;;10.97;2.37;;;;;;;;;;5011315;28;20411;-68
2021/04/22 01:06:11;;;;;;;11.27;2.13;;;;;;;;;;5010720;28;20026;-68
2021/04/22 01:08:37;;;;;;;13.67;2.37;;;;;;;;;;5013210;28;20089;-68
2021/04/22 01:11:03;;;;;;;7.43;2.07;;;;;;;;;;5011645;28;20276;-68
2021/04/22 01:13:28;;;;;;;10.57;2.00;;;;;;;;;;5012864;28;20490;-68
2021/04/22 01:15:54;;;;;;;17.87;3.03;;;;;;;;;;5010043;28;20339;-68
2021/04/22 01:18:19;;;;;;;7.33;2.00;;;;;;;;;;5010852;28;20038;-68
2021/04/22 01:20:46;;;;;;;7.93;2.37;;;;;;;;;;5010809;28;20116;-68
2021/04/22 01:23:11;;;;;;;9.67;2.90;;;;;;;;;;5011897;28;20342;-68
2021/04/22 01:25:39;;;;;;;10.03;2.43;;;;;;;;;;5006900;28;20288;-68
2021/04/22 01:28:06;;;;;;;10.50;2.37;;;;;;;;;;4996793;28;20045;-68
2021/04/22 01:30:33;;;;;;;6.67;2.30;;;;;;;;;;5011137;28;20379;-68
2021/04/22 01:32:59;;;;;;;9.60;2.30;;;;;;;;;;5010677;28;20769;-68
2021/04/22 01:35:32;;;;;;;7.20;1.90;;;;;;;;;;5012038;28;20326;-68
2021/04/22 01:37:59;;;;;;;6.60;1.90;;;;;;;;;;5010689;28;20030;-68
2021/04/22 01:40:24;;;;;;;7.97;2.10;;;;;;;;;;5012009;28;20268;-68
2021/04/22 01:42:49;;;;;;;8.50;1.90;;;;;;;;;;5006202;28;20273;-68
2021/04/22 01:45:15;;;;;;;12.90;2.10;;;;;;;;;;5012186;28;20056;-68
2021/04/22 01:47:41;;;;;;;8.50;1.80;;;;;;;;;;5010913;28;20105;-68
2021/04/22 01:50:09;;;;;;;10.13;2.10;;;;;;;;;;5004808;28;20398;-68
2021/04/22 01:52:34;;;;;;;8.23;2.00;;;;;;;;;;5010163;28;20329;-68
2021/04/22 01:54:59;;;;;;;8.40;2.53;;;;;;;;;;5009672;28;20293;-68
2021/04/22 01:57:25;;;;;;;11.13;2.30;;;;;;;;;;5009550;28;20033;-68
2021/04/22 01:59:50;;;;;;;6.03;1.53;;;;;;;;;;5011146;28;20036;-68
2021/04/22 02:02:16;;;;;;;12.03;3.40;;;;;;;;;;5006508;28;20402;-68
2021/04/22 02:04:41;;;;;;;6.67;1.90;;;;;;;;;;5010825;28;20501;-68
2021/04/22 02:07:06;;;;;;;9.60;2.23;;;;;;;;;;5009537;28;20486;-68
2021/04/22 02:09:32;;;;;;;8.33;1.90;;;;;;;;;;5008610;28;20022;-68
2021/04/22 02:11:57;;;;;;;7.40;1.80;;;;;;;;;;5010035;28;20142;-68
2021/04/22 02:14:23;;;;;;;16.97;2.27;;;;;;;;;;5009920;28;20029;-68
2021/04/22 02:16:48;;;;;;;15.27;2.50;;;;;;;;;;5009878;28;20037;-68
2021/04/22 02:19:13;;;;;;;7.90;1.67;;;;;;;;;;5010140;28;20474;-68
2021/04/22 02:21:39;;;;;;;6.60;2.20;;;;;;;;;;5010296;28;20034;-68
2021/04/22 02:24:04;;;;;;;8.47;2.30;;;;;;;;;;5010177;28;20041;-68
2021/04/22 02:26:29;;;;;;;7.63;1.93;;;;;;;;;;5011389;28;20360;-68
2021/04/22 02:28:55;;;;;;;12.97;1.97;;;;;;;;;;5009017;28;20034;-68
2021/04/22 02:31:20;;;;;;;10.80;1.90;;;;;;;;;;5007088;28;20469;-68
2021/04/22 02:33:46;;;;;;;6.23;1.87;;;;;;;;;;5007779;28;20057;-68
2021/04/22 02:36:12;;;;;;;9.57;1.93;;;;;;;;;;5009927;28;20028;-68
2021/04/22 02:38:37;;;;;;;9.10;1.90;;;;;;;;;;5010492;28;20371;-68
2021/04/22 02:41:02;;;;;;;11.97;1.70;;;;;;;;;;5000853;28;20034;-68
2021/04/22 02:43:27;;;;;;;11.43;2.40;;;;;;;;;;5009316;28;20433;-68
2021/04/22 02:45:54;;;;;;;8.37;1.60;;;;;;;;;;5010290;28;20026;-68
2021/04/22 02:48:20;;;;;;;11.17;2.43;;;;;;;;;;5009473;28;20028;-68
2021/04/22 02:50:47;;;;;;;7.33;1.83;;;;;;;;;;5005784;28;20273;-68
2021/04/22 02:53:13;;;;;;;8.93;1.83;;;;;;;;;;5009263;28;20486;-68
2021/04/22 02:55:38;;;;;;;8.37;1.47;;;;;;;;;;5009472;28;20265;-68
2021/04/22 02:58:04;;;;;;;11.03;2.13;;;;;;;;;;5010263;28;20132;-68
2021/04/22 03:00:29;;;;;;;12.40;2.53;;;;;;;;;;5008826;28;20383;-68
2021/04/22 03:02:54;;;;;;;13.53;1.90;;;;;;;;;;5009359;28;20032;-68
2021/04/22 03:05:20;;;;;;;8.50;1.77;;;;;;;;;;5009391;28;20528;-68
2021/04/22 03:07:45;;;;;;;12.90;2.00;;;;;;;;;;5007532;28;20025;-68
2021/04/22 03:10:12;;;;;;;7.33;1.67;;;;;;;;;;5006627;28;20037;-68
2021/04/22 03:12:38;;;;;;;11.07;2.37;;;;;;;;;;5010237;28;20022;-68
2021/04/22 03:15:04;;;;;;;11.03;2.37;;;;;;;;;;5008322;28;20272;-68
2021/04/22 03:17:30;;;;;;;7.37;1.80;;;;;;;;;;5009650;28;21000;-68
2021/04/22 03:19:55;;;;;;;13.63;2.37;;;;;;;;;;5007901;28;20692;-68
2021/04/22 03:22:20;;;;;;;7.37;1.63;;;;;;;;;;5009913;28;20506;-68
2021/04/22 03:24:45;;;;;;;8.33;1.83;;;;;;;;;;5007850;28;20026;-68
2021/04/22 03:27:11;;;;;;;6.13;1.73;;;;;;;;;;5010522;28;20081;-68
2021/04/22 03:29:36;;;;;;;7.20;1.90;;;;;;;;;;5007111;28;20454;-68
2021/04/22 03:32:01;;;;;;;8.83;2.03;;;;;;;;;;5003564;28;20045;-68
2021/04/22 03:34:27;;;;;;;9.63;2.17;;;;;;;;;;5008951;28;20084;-68
2021/04/22 03:36:52;;;;;;;7.77;1.73;;;;;;;;;;5008937;28;20031;-68
2021/04/22 03:39:17;;;;;;;10.60;1.60;;;;;;;;;;5009538;28;20398;-68
2021/04/22 03:41:43;;;;;;;6.73;1.90;;;;;;;;;;5009522;28;20038;-68
2021/04/22 03:44:08;;;;;;;8.33;1.93;;;;;;;;;;5006828;28;20438;-68
2021/04/22 03:46:33;;;;;;;8.73;2.13;;;;;;;;;;5009275;28;20029;-68
2021/04/22 03:48:59;;;;;;;9.60;1.77;;;;;;;;;;5008197;28;20040;-68
2021/04/22 03:51:24;;;;;;;11.70;2.20;;;;;;;;;;5004042;28;20462;-68
2021/04/22 03:53:50;;;;;;;6.77;1.70;;;;;;;;;;5012119;28;20407;-68
2021/04/22 03:56:15;;;;;;;6.27;1.60;;;;;;;;;;5008750;28;20457;-68
2021/04/22 03:58:41;;;;;;;9.80;1.87;;;;;;;;;;5008949;28;20030;-68
2021/04/22 04:01:06;;;;;;;7.53;1.77;;;;;;;;;;5008334;28;20072;-68
2021/04/22 04:03:31;;;;;;;5.80;1.73;;;;;;;;;;5007357;28;20070;-68
2021/04/22 04:05:57;;;;;;;9.73;1.87;;;;;;;;;;5007142;28;20051;-68
2021/04/22 04:08:22;;;;;;;11.03;2.67;;;;;;;;;;5010506;28;20076;-68
2021/04/22 04:10:47;;;;;;;9.40;2.10;;;;;;;;;;5011048;28;20073;-68
2021/04/22 04:13:12;;;;;;;8.83;1.63;;;;;;;;;;5010845;28;20026;-68
2021/04/22 04:15:38;;;;;;;14.80;4.30;;;;;;;;;;5013760;28;20018;-68
2021/04/22 04:18:05;;;;;;;13.87;2.63;;;;;;;;;;5011746;28;20057;-68
2021/04/22 04:20:30;;;;;;;6.70;2.17;;;;;;;;;;5012749;28;20022;-68
2021/04/22 04:22:55;;;;;;;7.50;1.90;;;;;;;;;;5011388;28;20334;-68
2021/04/22 04:25:21;;;;;;;9.43;2.03;;;;;;;;;;5011967;28;20030;-68
2021/04/22 04:27:46;;;;;;;7.77;1.80;;;;;;;;;;5012926;28;20557;-68
2021/04/22 04:30:15;;;;;;;6.73;1.67;;;;;;;;;;5010801;28;20026;-68
2021/04/22 04:32:40;;;;;;;11.63;2.13;;;;;;;;;;5013152;28;20026;-68
2021/04/22 04:35:06;;;;;;;8.20;1.90;;;;;;;;;;4994956;28;20942;-68
2021/04/22 04:37:31;;;;;;;10.90;2.17;;;;;;;;;;5012279;28;20030;-68
2021/04/22 04:39:56;;;;;;;7.63;1.67;;;;;;;;;;5009028;28;20096;-68
2021/04/22 04:42:21;;;;;;;10.63;1.90;;;;;;;;;;5011311;28;20040;-68
2021/04/22 04:44:47;;;;;;;10.80;1.60;;;;;;;;;;5007341;28;20468;-68
2021/04/22 04:47:12;;;;;;;12.23;2.17;;;;;;;;;;5011927;28;20229;-68
2021/04/22 04:49:37;;;;;;;12.40;2.53;;;;;;;;;;5012197;28;20101;-68
2021/04/22 04:52:03;;;;;;;12.10;1.83;;;;;;;;;;5009844;28;20040;-68
2021/04/22 04:54:28;;;;;;;10.50;2.20;;;;;;;;;;5007912;28;20029;-68
2021/04/22 04:56:54;;;;;;;12.13;1.70;;;;;;;;;;5012155;28;20026;-68
2021/04/22 04:59:19;;;;;;;9.83;1.73;;;;;;;;;;5010741;28;20398;-68
2021/04/22 05:01:44;;;;;;;6.13;1.77;;;;;;;;;;5011652;28;20478;-68
2021/04/22 05:04:10;;;;;;;13.50;1.93;;;;;;;;;;5009667;28;20049;-68
2021/04/22 05:06:36;;;;;;;15.83;2.17;;;;;;;;;;5009881;28;20026;-68
2021/04/22 05:09:02;;;;;;;8.57;1.70;;;;;;;;;;5012568;28;20029;-68
2021/04/22 05:11:27;;;;;;;13.87;2.13;;;;;;;;;;5008513;28;20281;-68
2021/04/22 05:13:52;;;;;;;5.83;1.50;;;;;;;;;;5012254;28;20018;-68
2021/04/22 05:16:17;;;;;;;5.83;1.60;;;;;;;;;;4986493;28;20037;-68
2021/04/22 05:18:43;;;;;;;7.47;1.70;;;;;;;;;;5012196;28;20466;-67
2021/04/22 05:21:08;;;;;;;6.13;1.80;;;;;;;;;;5008256;28;20806;-66
2021/04/22 05:23:33;;;;;;;9.23;2.00;;;;;;;;;;5008342;28;20029;-66
2021/04/22 05:25:58;;;;;;;9.67;2.90;;;;;;;;;;5008942;28;20034;-66
2021/04/22 05:28:24;;;;;;;6.83;1.47;;;;;;;;;;5006437;28;20026;-66
2021/04/22 05:30:49;;;;;;;7.83;1.80;;;;;;;;;;5012051;28;20466;-66
2021/04/22 05:33:15;;;;;;;8.67;1.73;;;;;;;;;;5007346;28;20046;-67
2021/04/22 05:35:40;;;;;;;8.10;1.70;;;;;;;;;;5010595;28;20025;-67
2021/04/22 05:38:06;;;;;;;10.33;1.80;;;;;;;;;;5004494;28;20421;-67
2021/04/22 05:40:32;;;;;;;8.43;1.70;;;;;;;;;;5009494;28;20071;-67
2021/04/22 05:42:57;;;;;;;7.67;1.40;;;;;;;;;;5010932;28;20605;-67
2021/04/22 05:45:23;;;;;;;11.00;1.73;;;;;;;;;;5010652;28;20034;-68
2021/04/22 05:47:48;;;;;;;9.67;1.63;;;;;;;;;;5009018;28;20033;-68
2021/04/22 05:50:14;;;;;;;7.33;1.50;;;;;;;;;;5011693;28;20032;-68
2021/04/22 05:52:40;;;;;;;9.90;1.73;;;;;;;;;;5006796;28;20045;-68
2021/04/22 05:55:06;;;;;;;9.97;2.00;;;;;;;;;;5011585;28;20029;-68
2021/04/22 05:57:31;;;;;;;5.63;1.40;;;;;;;;;;5012024;28;20105;-68
2021/04/22 05:59:56;;;;;;;8.33;3.57;;;;;;;;;;5011502;28;20037;-69
2021/04/22 06:02:23;;;;;;;7.57;1.70;;;;;;;;;;5007475;28;20052;-71
2021/04/22 06:04:48;;;;;;;8.37;1.60;;;;;;;;;;5008984;28;20483;-74
2021/04/22 06:07:13;;;;;;;13.73;2.53;;;;;;;;;;5011399;28;20038;-76
2021/04/22 06:09:39;;;;;;;7.57;1.10;;;;;;;;;;5012621;28;20030;-75
2021/04/22 06:12:05;;;;;;;8.63;1.40;;;;;;;;;;5010653;28;20022;-75
2021/04/22 06:14:31;;;;;;;2.97;0.80;;;;;;;;;;5012233;28;20076;-77
2021/04/22 06:16:56;;;;;;;5.53;1.07;;;;;;;;;;5006975;28;20470;-77
2021/04/22 06:19:21;;;;;;;5.60;1.30;;;;;;;;;;5007716;28;20030;-78
2021/04/22 06:21:47;;;;;;;7.53;1.70;;;;;;;;;;5016241;28;20034;-77
2021/04/22 06:24:12;;;;;;;5.57;1.23;;;;;;;;;;5022241;28;20033;-80
2021/04/22 06:26:37;;;;;;;7.33;1.17;;;;;;;;;;5027031;28;20390;-79
2021/04/22 06:29:04;;;;;;;3.93;1.30;;;;;;;;;;5021694;28;20106;-78
2021/04/22 06:31:29;;;;;;;5.03;1.07;;;;;;;;;;5022595;28;20018;-77
2021/04/22 06:33:55;;;;;;;9.97;2.03;;;;;;;;;;5022217;28;20426;-78
2021/04/22 06:36:21;;;;;;;6.63;1.30;;;;;;;;;;5015698;28;20392;-77
2021/04/22 06:38:46;;;;;;;11.60;2.00;;;;;;;;;;5015432;28;20093;-76
2021/04/22 06:41:11;;;;;;;11.70;1.30;;;;;;;;;;5020605;28;20418;-78
2021/04/22 06:43:37;;;;;;;4.90;1.60;;;;;;;;;;5020519;28;20079;-79
2021/04/22 06:46:02;;;;;;;4.03;1.20;;;;;;;;;;5021455;28;20486;-78
2021/04/22 06:48:27;;;;;;;9.80;1.90;;;;;;;;;;5013654;28;20061;-78
2021/04/22 06:50:52;;;;;;;8.80;1.40;;;;;;;;;;5007773;28;20026;-72
2021/04/22 06:53:18;;;;;;;14.03;1.53;;;;;;;;;;5008912;28;20109;-73
2021/04/22 06:55:43;;;;;;;8.43;1.53;;;;;;;;;;5011877;28;20536;-76
2021/04/22 06:58:08;;;;;;;9.67;1.43;;;;;;;;;;5010669;28;20511;-73
2021/04/22 07:00:35;;;;;;;5.07;1.10;;;;;;;;;;5013552;28;20466;-71
2021/04/22 07:03:01;;;;;;;9.27;1.77;;;;;;;;;;5012411;28;20053;-70
2021/04/22 07:05:26;;;;;;;8.30;1.47;;;;;;;;;;5013772;28;20057;-77
2021/04/22 07:07:51;;;;;;;6.57;1.47;;;;;;;;;;5018148;28;20018;-79
2021/04/22 07:10:17;;;;;;;6.33;1.23;;;;;;;;;;5000125;28;20022;-75
2021/04/22 07:12:42;;;;;;;3.17;1.07;;;;;;;;;;5011983;28;20018;-75
2021/04/22 07:15:08;;;;;;;4.80;1.13;;;;;;;;;;5015192;28;20030;-73
2021/04/22 07:17:34;;;;;;;7.60;1.40;;;;;;;;;;5012632;28;20034;-73
2021/04/22 07:19:59;;;;;;;7.83;1.80;;;;;;;;;;5006172;28;20022;-71
2021/04/22 07:22:25;;;;;;;10.10;1.70;;;;;;;;;;5011211;28;20052;-72
2021/04/22 07:24:52;;;;;;;8.50;1.53;;;;;;;;;;5013121;28;20029;-76
2021/04/22 07:27:18;;;;;;;6.37;1.23;;;;;;;;;;5022767;28;20053;-75
2021/04/22 07:29:47;;;;;;;7.50;1.13;;;;;;;;;;5012311;28;20045;-72
2021/04/22 07:32:13;;;;;;;7.70;1.30;;;;;;;;;;5009131;28;20164;-71
2021/04/22 07:34:38;;;;;;;7.43;1.30;;;;;;;;;;5012603;28;20382;-73
2021/04/22 07:37:04;;;;;;;5.50;1.20;;;;;;;;;;5021072;28;20029;-70
2021/04/22 07:39:29;;;;;;;3.77;1.00;;;;;;;;;;4993176;28;20029;-71
2021/04/22 07:41:54;;;;;;;9.33;1.60;;;;;;;;;;4999510;28;20036;-69
2021/04/22 07:44:20;;;;;;;7.27;1.57;;;;;;;;;;5007065;28;20053;-70
2021/04/22 07:46:46;;;;;;;5.30;1.40;;;;;;;;;;5011805;28;20096;-68
2021/04/22 07:49:12;;;;;;;6.33;1.37;;;;;;;;;;5008974;28;20018;-68
2021/04/22 07:51:37;;;;;;;5.30;1.40;;;;;;;;;;5014758;28;20046;-68
2021/04/22 07:54:03;;;;;;;8.80;1.73;;;;;;;;;;5005400;28;20057;-68
2021/04/22 07:56:28;;;;;;;8.47;1.40;;;;;;;;;;5017776;28;20113;-68
2021/04/22 07:58:53;;;;;;;6.43;1.33;;;;;;;;;;5006025;28;20029;-69
2021/04/22 08:01:18;;;;;;;10.50;1.40;;;;;;;;;;5017001;28;20109;-70
2021/04/22 08:03:44;;;;;;;5.70;1.37;;;;;;;;;;5003807;28;20093;-69
2021/04/22 08:06:09;;;;;;;5.90;1.17;;;;;;;;;;5007473;28;20347;-70
2021/04/22 08:08:34;;;;;;;6.00;1.33;;;;;;;;;;5001916;28;20030;-69
2021/04/22 08:11:01;;;;;;;7.47;1.40;;;;;;;;;;5000924;28;20022;-69
2021/04/22 08:13:26;;;;;;;4.37;1.17;;;;;;;;;;4992158;28;20028;-69
2021/04/22 08:15:53;;;;;;;5.87;1.70;;;;;;;;;;5007715;28;20486;-69
2021/04/22 08:18:19;;;;;;;5.67;1.37;;;;;;;;;;5004146;28;20034;-69
2021/04/22 08:20:45;;;;;;;6.77;1.40;;;;;;;;;;5001061;28;20467;-69
2021/04/22 08:23:10;;;;;;;7.70;2.10;;;;;;;;;;5002853;28;20053;-70
2021/04/22 08:25:37;;;;;;;4.20;1.23;;;;;;;;;;5007661;28;20025;-75
2021/04/22 08:28:04;;;;;;;10.70;1.40;;;;;;;;;;5007054;28;20018;-76
2021/04/22 08:30:31;;;;;;;6.83;1.50;;;;;;;;;;5005302;28;20025;-73
2021/04/22 08:32:59;;;;;;;5.33;1.17;;;;;;;;;;4994831;28;20026;-73
2021/04/22 08:35:24;;;;;;;4.90;1.13;;;;;;;;;;5000615;28;20021;-70
2021/04/22 08:37:50;;;;;;;7.73;1.33;;;;;;;;;;5000110;28;20025;-70
2021/04/22 08:40:16;;;;;;;6.97;1.20;;;;;;;;;;4996267;28;20109;-71
2021/04/22 08:42:42;;;;;;;6.33;1.20;;;;;;;;;;5001654;28;20081;-70
2021/04/22 08:45:08;;;;;;;5.50;1.40;;;;;;;;;;5005255;28;20053;-70
2021/04/22 08:47:34;;;;;;;10.27;1.60;;;;;;;;;;5014883;28;20018;-69
2021/04/22 08:49:59;;;;;;;5.43;1.37;;;;;;;;;;4997346;28;20508;-69
2021/04/22 08:52:24;;;;;;;5.00;1.50;;;;;;;;;;5005490;28;20025;-68
2021/04/22 08:54:50;;;;;;;6.50;1.27;;;;;;;;;;5011055;28;20029;-68
2021/04/22 08:57:15;;;;;;;4.87;1.20;;;;;;;;;;5006158;28;20107;-72
2021/04/22 08:59:41;;;;;;;4.50;1.13;;;;;;;;;;5006247;28;20157;-70
2021/04/22 09:02:07;;;;;;;4.97;1.30;;;;;;;;;;5006997;28;20026;-69
2021/04/22 09:04:33;;;;;;;5.33;1.43;;;;;;;;;;5006787;28;20056;-70
2021/04/22 09:06:58;;;;;;;4.70;1.10;;;;;;;;;;5009226;28;20037;-71
2021/04/22 09:09:23;;;;;;;6.17;1.30;;;;;;;;;;5010472;28;20026;-77
2021/04/22 09:11:49;;;;;;;5.57;1.20;;;;;;;;;;5011345;28;20100;-77
2021/04/22 09:14:22;;;;;;;4.90;1.20;;;;;;;;;;5007830;28;20157;-74
2021/04/22 09:16:49;;;;;;;2.93;1.17;;;;;;;;;;5010564;28;20029;-71
2021/04/22 09:19:17;;;;;;;6.83;1.43;;;;;;;;;;5009758;28;20065;-75
2021/04/22 09:21:44;;;;;;;2.63;1.00;;;;;;;;;;5003938;28;20386;-76
2021/04/22 09:24:12;;;;;;;4.13;1.20;;;;;;;;;;4984158;28;20029;-78
2021/04/22 09:26:39;;;;;;;4.80;1.50;;;;;;;;;;5001829;28;20033;-77
2021/04/22 09:29:05;;;;;;;5.23;1.47;;;;;;;;;;5006763;28;21411;-75
2021/04/22 09:31:30;;;;;;;5.70;1.30;;;;;;;;;;4995515;28;20426;-73
2021/04/22 09:34:04;;;;;;;10.40;1.43;;;;;;;;;;4999977;28;20026;-77
2021/04/22 09:36:44;;;;;;;4.13;1.00;;;;;;;;;;5014277;28;20128;-75
2021/04/22 09:39:10;;;;;;;5.33;1.43;;;;;;;;;;5003967;28;20029;-77
2021/04/22 09:41:36;;;;;;;6.10;1.23;;;;;;;;;;5005028;28;20056;-77
2021/04/22 09:44:06;;;;;;;3.63;1.27;;;;;;;;;;5010128;28;20054;-77
2021/04/22 09:46:31;;;;;;;7.78;1.48;;;;;;;;;;5007370;28;20482;-72
2021/04/22 09:48:57;;;;;;;7.30;1.40;;;;;;;;;;5006861;28;20032;-71
2021/04/22 09:51:32;;;;;;;6.97;1.50;;;;;;;;;;5008182;28;20483;-70
2021/04/22 09:54:02;;;;;;;4.33;1.20;;;;;;;;;;5006880;28;20116;-72
2021/04/22 09:56:38;;;;;;;4.77;1.10;;;;;;;;;;5007895;28;20105;-74
2021/04/22 09:59:04;;;;;;;9.17;1.57;;;;;;;;;;5007440;28;20044;-74
2021/04/22 10:01:31;;;;;;;5.40;1.10;;;;;;;;;;5015149;28;20026;-78
2021/04/22 10:03:56;;;;;;;6.03;1.60;;;;;;;;;;5004810;28;20656;-73
2021/04/22 10:06:22;;;;;;;7.07;1.35;;;;;;;;;;5014453;28;20037;-72
2021/04/22 10:08:47;;;;;;;3.27;0.80;;;;;;;;;;5007519;28;20026;-69
2021/04/22 10:11:13;;;;;;;6.50;1.30;;;;;;;;;;5004855;28;20437;-73
2021/04/22 10:13:46;;;;;;;3.93;1.17;;;;;;;;;;5004625;28;20016;-73
2021/04/22 10:16:12;;;;;;;6.40;1.10;;;;;;;;;;5005556;28;20096;-73
2021/04/22 10:18:38;;;;;;;7.40;1.27;;;;;;;;;;5005888;28;20034;-73
2021/04/22 10:21:03;;;;;;;3.58;0.85;;;;;;;;;;5010492;28;20041;-72
2021/04/22 10:23:29;;;;;;;4.40;0.93;;;;;;;;;;5009493;28;20033;-73
2021/04/22 10:25:55;;;;;;;5.68;1.10;;;;;;;;;;5010857;28;20044;-73
2021/04/22 10:28:21;;;;;;;4.32;1.20;;;;;;;;;;5006086;28;20039;-71
2021/04/22 10:30:51;;;;;;;7.72;1.05;;;;;;;;;;5011022;28;20071;-71
2021/04/22 10:33:17;;;;;;;4.57;1.02;;;;;;;;;;4998891;28;20046;-69
2021/04/22 10:35:42;;;;;;;11.80;1.70;;;;;;;;;;5004976;28;20079;-69
2021/04/22 10:38:09;;;;;;;11.33;1.50;;;;;;;;;;5008654;28;20049;-69
2021/04/22 10:40:35;;;;;;;4.77;1.17;;;;;;;;;;5008545;28;20026;-69
2021/04/22 10:43:02;;;;;;;4.23;1.20;;;;;;;;;;5002103;28;20083;-69
2021/04/22 10:45:28;;;;;;;6.90;1.40;;;;;;;;;;5006513;28;21521;-70
2021/04/22 10:47:54;;;;;;;5.77;1.20;;;;;;;;;;5003820;28;20030;-70
2021/04/22 10:50:23;;;;;;;9.83;1.50;;;;;;;;;;5004158;28;20026;-69
2021/04/22 10:52:50;;;;;;;6.13;1.40;;;;;;;;;;5002314;28;20030;-69
2021/04/22 10:55:21;;;;;;;6.43;1.40;;;;;;;;;;5003073;28;20032;-68
2021/04/22 10:57:47;;;;;;;3.23;1.30;;;;;;;;;;5001341;28;20034;-68
2021/04/22 11:00:13;;;;;;;2.97;1.00;;;;;;;;;;5009057;28;20030;-69
2021/04/22 11:02:43;;;;;;;6.13;1.20;;;;;;;;;;4999606;28;20037;-69
2021/04/22 11:05:18;;;;;;;3.23;1.17;;;;;;;;;;5006948;28;21223;-69
2021/04/22 11:07:52;;;;;;;6.87;1.10;;;;;;;;;;5006963;28;20033;-68
2021/04/22 11:10:17;;;;;;;8.50;1.50;;;;;;;;;;5008710;28;20518;-68
2021/04/22 11:12:43;;;;;;;6.80;1.20;;;;;;;;;;5002585;28;20079;-69
2021/04/22 11:15:17;;;;;;;6.27;1.90;;;;;;;;;;4995782;28;20524;-69
2021/04/22 11:17:42;;;;;;;5.97;1.40;;;;;;;;;;5001663;28;20109;-69
2021/04/22 11:20:11;;;;;;;8.30;1.60;;;;;;;;;;5005864;28;20152;-69
2021/04/22 11:22:37;;;;;;;4.80;1.20;;;;;;;;;;4997084;28;20025;-69
2021/04/22 11:25:04;;;;;;;4.87;1.33;;;;;;;;;;5009457;28;20540;-68
2021/04/22 11:27:30;;;;;;;5.77;1.10;;;;;;;;;;5015839;28;20504;-68
2021/04/22 11:30:02;;;;;;;6.67;1.73;;;;;;;;;;5008753;28;20026;-68
2021/04/22 11:32:27;;;;;;;5.63;1.30;;;;;;;;;;5013829;28;20026;-67
2021/04/22 11:34:54;;;;;;;7.17;1.63;;;;;;;;;;5009804;28;20026;-67
2021/04/22 11:37:22;;;;;;;4.50;1.23;;;;;;;;;;5016483;28;20029;-67
2021/04/22 11:39:48;;;;;;;7.43;1.57;;;;;;;;;;5009366;28;20029;-67
2021/04/22 11:42:13;;;;;;;6.97;1.90;;;;;;;;;;5005948;28;20034;-68
2021/04/22 11:44:39;;;;;;;4.47;1.30;;;;;;;;;;5004799;28;20048;-68
2021/04/22 11:47:32;;;;;;;5.90;1.37;;;;;;;;;;5008931;28;20387;-69
2021/04/22 11:50:09;;;;;;;5.27;1.40;;;;;;;;;;5012435;28;20052;-68
2021/04/22 11:52:50;;;;;;;6.63;1.47;;;;;;;;;;5009218;28;20524;-69
2021/04/22 11:55:17;;;;;;;5.13;1.63;;;;;;;;;;5013933;28;20027;-69
2021/04/22 11:58:04;;;;;;;5.40;1.40;;;;;;;;;;4998813;28;20447;-69
2021/04/22 12:00:31;;;;;;;3.63;1.20;;;;;;;;;;5008208;28;20395;-69
2021/04/22 12:02:56;;;;;;;6.77;1.60;;;;;;;;;;4999908;28;20034;-69
2021/04/22 12:05:22;;;;;;;4.93;1.17;;;;;;;;;;5005884;28;20058;-69
2021/04/22 12:07:55;;;;;;;4.35;1.25;;;;;;;;;;5008286;28;20099;-69
2021/04/22 12:10:20;;;;;;;7.32;1.50;;;;;;;;;;5011703;28;20021;-69
2021/04/22 12:12:47;;;;;;;6.87;1.60;;;;;;;;;;5003581;28;20092;-69
2021/04/22 12:15:12;;;;;;;4.47;1.37;;;;;;;;;;5004773;28;20116;-69
2021/04/22 12:17:38;;;;;;;5.83;1.70;;;;;;;;;;5008085;28;20117;-69
2021/04/22 12:20:08;;;;;;;4.97;1.40;;;;;;;;;;5007273;28;20040;-69
2021/04/22 12:22:33;;;;;;;3.57;1.17;;;;;;;;;;5008369;28;20112;-69
2021/04/22 12:24:59;;;;;;;6.00;1.40;;;;;;;;;;5009912;28;20026;-69
2021/04/22 12:27:28;;;;;;;5.00;1.30;;;;;;;;;;5016001;28;20357;-68
2021/04/22 12:29:54;;;;;;;6.57;1.70;;;;;;;;;;5000409;28;20112;-68
2021/04/22 12:32:19;;;;;;;8.37;2.00;;;;;;;;;;5012707;28;20413;-69
2021/04/22 12:34:44;;;;;;;8.50;1.60;;;;;;;;;;5006300;28;20071;-68
2021/04/22 12:37:10;;;;;;;5.77;1.50;;;;;;;;;;5007720;28;20068;-68
2021/04/22 12:39:48;;;;;;;9.97;1.63;;;;;;;;;;5012135;28;20041;-68
2021/04/22 12:42:17;;;;;;;6.47;1.53;;;;;;;;;;5002061;28;20478;-69
2021/04/22 12:45:04;;;;;;;6.93;1.50;;;;;;;;;;5005953;28;20076;-68
2021/04/22 12:47:34;;;;;;;3.97;1.20;;;;;;;;;;5001634;28;20044;-68
2021/04/22 12:50:01;;;;;;;2.63;1.27;;;;;;;;;;5005520;28;20470;-68
2021/04/22 12:52:26;;;;;;;5.40;1.60;;;;;;;;;;5008725;28;20387;-68
2021/04/22 12:54:59;;;;;;;10.20;1.60;;;;;;;;;;5001406;28;20026;-68
2021/04/22 12:57:24;;;;;;;5.20;1.30;;;;;;;;;;5011812;28;20045;-69
2021/04/22 12:59:52;;;;;;;3.67;1.33;;;;;;;;;;5014614;28;20025;-68
2021/04/22 13:02:17;;;;;;;5.00;1.27;;;;;;;;;;5015303;28;20034;-68
2021/04/22 13:04:52;;;;;;;4.47;1.20;;;;;;;;;;5009554;28;20076;-68
2021/04/22 13:07:25;;;;;;;7.47;1.50;;;;;;;;;;5004615;28;20129;-67
2021/04/22 13:09:51;;;;;;;7.97;1.30;;;;;;;;;;5003917;28;20026;-67
2021/04/22 13:12:16;;;;;;;5.50;1.20;;;;;;;;;;5013222;28;20053;-67
2021/04/22 13:14:41;;;;;;;9.20;1.33;;;;;;;;;;5010398;28;20375;-68
2021/04/22 13:17:10;;;;;;;8.17;1.30;;;;;;;;;;5010479;28;20131;-68
2021/04/22 13:19:36;;;;;;;3.67;1.60;;;;;;;;;;5008925;28;20037;-68
2021/04/22 13:22:02;;;;;;;5.20;1.30;;;;;;;;;;5013126;28;20129;-67
2021/04/22 13:24:28;;;;;;;5.50;1.80;;;;;;;;;;5008587;28;20609;-67
2021/04/22 13:26:54;;;;;;;8.00;1.30;;;;;;;;;;4990088;28;20033;-67
2021/04/22 13:29:20;;;;;;;7.60;1.67;;;;;;;;;;5004707;28;20029;-68
2021/04/22 13:31:46;;;;;;;8.90;1.40;;;;;;;;;;5010785;28;20025;-67
2021/04/22 13:34:13;;;;;;;4.60;1.40;;;;;;;;;;5008704;28;20482;-68
2021/04/22 13:36:38;;;;;;;6.80;1.70;;;;;;;;;;5002079;28;20030;-68
2021/04/22 13:39:04;;;;;;;5.83;1.57;;;;;;;;;;5002908;28;20049;-68
2021/04/22 13:41:29;;;;;;;4.27;1.33;;;;;;;;;;5003484;28;20037;-68
2021/04/22 13:43:58;;;;;;;6.37;1.50;;;;;;;;;;5007667;28;20375;-68
2021/04/22 13:46:24;;;;;;;5.87;1.57;;;;;;;;;;5008748;28;20046;-68
2021/04/22 13:48:54;;;;;;;4.77;1.50;;;;;;;;;;5001894;28;20379;-68
2021/04/22 13:51:21;;;;;;;8.20;1.87;;;;;;;;;;5007678;28;20026;-68
2021/04/22 13:53:47;;;;;;;4.63;1.30;;;;;;;;;;5001567;28;20026;-68
2021/04/22 13:56:12;;;;;;;8.03;1.50;;;;;;;;;;5008932;28;20088;-68
2021/04/22 13:58:38;;;;;;;6.53;1.80;;;;;;;;;;5010772;28;20033;-68
2021/04/22 14:01:07;;;;;;;5.20;2.00;;;;;;;;;;5013444;28;20042;-68
2021/04/22 14:03:37;;;;;;;8.03;1.50;;;;;;;;;;5002321;28;20054;-68
2021/04/22 14:06:03;;;;;;;4.63;1.60;;;;;;;;;;5009295;28;20088;-68
2021/04/22 14:08:32;;;;;;;4.33;1.40;;;;;;;;;;4998732;28;20035;-67
2021/04/22 14:11:08;;;;;;;5.53;1.30;;;;;;;;;;5011860;28;20132;-67
2021/04/22 14:13:34;;;;;;;7.10;1.20;;;;;;;;;;4996517;28;20041;-68
2021/04/22 14:15:59;;;;;;;5.20;1.50;;;;;;;;;;5010354;28;20474;-68
2021/04/22 14:18:24;;;;;;;4.57;1.60;;;;;;;;;;5002087;28;20026;-67
2021/04/22 14:20:50;;;;;;;7.80;1.87;;;;;;;;;;5005283;28;20030;-67
2021/04/22 14:23:15;;;;;;;7.37;1.50;;;;;;;;;;5004184;28;20049;-67
2021/04/22 14:25:40;;;;;;;4.73;1.20;;;;;;;;;;5008796;28;20034;-67
2021/04/22 14:28:05;;;;;;;3.70;1.33;;;;;;;;;;5008543;28;20515;-67
2021/04/22 14:30:31;;;;;;;5.63;1.50;;;;;;;;;;5000206;28;20053;-67
2021/04/22 14:32:56;;;;;;;4.80;1.47;;;;;;;;;;4994718;28;20056;-67
2021/04/22 14:35:22;;;;;;;4.33;1.40;;;;;;;;;;5005996;28;20060;-67